createdAt,value
2019-01-05T00:01:09.344Z,88.38
2019-01-05T00:03:58.544Z,88.55
2019-01-05T00:06:54.330Z,89.05
2019-01-05T00:09:44.736Z,89.43
2019-01-05T00:12:33.787Z,89.57
2019-01-05T00:15:42.677Z,89.00
2019-01-05T00:18:42.209Z,88.71
2019-01-05T00:21:31.441Z,89.09
2019-01-05T00:24:22.278Z,89.00
2019-01-05T00:27:16.977Z,89.27
2019-01-05T00:30:07.721Z,89.54
2019-01-05T00:33:09.262Z,88.38
2019-01-05T00:36:21.492Z,89.14
2019-01-05T00:39:18.159Z,89.57
2019-01-05T00:42:08.264Z,89.69
2019-01-05T00:45:04.557Z,89.63
2019-01-05T00:47:53.987Z,89.92
2019-01-05T00:50:51.687Z,89.76
2019-01-05T00:53:40.763Z,89.51
2019-01-05T00:56:30.009Z,88.99
2019-01-05T00:59:30.844Z,88.77
2019-01-05T01:02:30.319Z,88.92
2019-01-05T01:05:30.073Z,89.65
2019-01-05T01:08:29.054Z,89.74
2019-01-05T01:11:19.464Z,90.14
2019-01-05T01:14:10.077Z,89.80
2019-01-05T01:17:07.797Z,89.53
2019-01-05T01:20:08.626Z,89.74
2019-01-05T01:22:50.636Z,89.75
2019-01-05T01:25:36.026Z,89.81
2019-01-05T01:28:26.412Z,89.72
2019-01-05T01:31:17.743Z,90.41
2019-01-05T01:34:14.251Z,90.26
2019-01-05T01:37:04.663Z,90.25
2019-01-05T01:39:53.652Z,90.62
2019-01-05T01:42:42.818Z,90.41
2019-01-05T01:45:45.787Z,90.05
2019-01-05T01:48:39.486Z,89.83
2019-01-05T01:51:28.686Z,90.06
2019-01-05T01:54:22.032Z,90.26
2019-01-05T01:57:11.460Z,90.01
2019-01-05T02:00:15.788Z,90.40
2019-01-05T02:03:22.297Z,90.38
2019-01-05T02:06:11.469Z,89.97
2019-01-05T02:09:21.027Z,90.36
2019-01-05T02:12:16.757Z,90.56
2019-01-05T02:15:17.352Z,90.41
2019-01-05T02:19:03.889Z,90.12
2019-01-05T02:22:56.830Z,90.47
2019-01-05T02:26:29.368Z,90.84
2019-01-05T02:30:23.271Z,90.74
2019-01-05T02:34:00.738Z,90.57
2019-01-05T02:38:08.919Z,90.45
2019-01-05T02:41:48.421Z,90.94
2019-01-05T02:45:51.756Z,90.45
2019-01-05T02:49:09.208Z,90.58
2019-01-05T02:52:57.863Z,90.68
2019-01-05T02:56:45.663Z,90.19
2019-01-05T03:00:58.482Z,89.82
2019-01-05T03:04:35.179Z,91.08
2019-01-05T03:08:33.237Z,90.29
2019-01-05T03:12:05.681Z,91.06
2019-01-05T03:16:06.063Z,90.93
2019-01-05T03:19:58.127Z,91.28
2019-01-05T03:24:15.509Z,91.61
2019-01-05T03:28:00.289Z,91.27
2019-01-05T03:32:05.617Z,91.81
2019-01-05T03:36:00.604Z,92.28
2019-01-05T03:40:19.613Z,92.39
2019-01-05T03:44:02.945Z,92.25
2019-01-05T03:48:01.346Z,92.54
2019-01-05T03:51:36.702Z,92.39
2019-01-05T03:55:01.887Z,91.37
2019-01-05T03:58:52.894Z,91.67
2019-01-05T04:02:49.043Z,91.42
2019-01-05T04:06:44.321Z,91.14
2019-01-05T04:10:28.523Z,90.62
2019-01-05T04:14:08.710Z,91.09
2019-01-05T04:18:06.694Z,89.58
2019-01-05T04:22:23.292Z,91.05
2019-01-05T04:26:15.048Z,91.12
2019-01-05T04:29:49.907Z,91.72
2019-01-05T04:33:32.912Z,91.82
2019-01-05T04:37:36.576Z,91.09
2019-01-05T04:41:17.101Z,90.89
2019-01-05T04:45:33.598Z,90.03
2019-01-05T04:49:09.867Z,90.27
2019-01-05T04:53:08.859Z,89.11
2019-01-05T04:57:15.954Z,88.16
2019-01-05T05:01:09.341Z,84.89
2019-01-05T05:05:12.643Z,85.26
2019-01-05T05:08:57.318Z,86.08
2019-01-05T05:12:55.441Z,87.79
2019-01-05T05:16:52.571Z,88.67
2019-01-05T05:20:50.230Z,89.57
2019-01-05T05:24:46.217Z,88.13
2019-01-05T05:28:22.036Z,87.59
2019-01-05T05:32:14.383Z,88.19
2019-01-05T05:36:15.231Z,88.35
2019-01-05T05:39:58.228Z,88.99
2019-01-05T05:43:49.346Z,88.19
2019-01-05T05:47:41.086Z,89.26
2019-01-05T05:51:23.231Z,89.17
2019-01-05T05:55:25.988Z,88.89
2019-01-05T05:59:16.680Z,88.39
2019-01-05T06:02:37.154Z,88.64
2019-01-05T06:06:16.697Z,88.52
2019-01-05T06:10:13.770Z,88.18
2019-01-05T06:14:14.399Z,88.69
2019-01-05T06:17:51.596Z,89.24
2019-01-05T06:21:46.401Z,88.02
2019-01-05T06:25:44.999Z,87.68
2019-01-05T06:29:40.931Z,87.92
2019-01-05T06:33:43.803Z,87.86
2019-01-05T06:37:43.574Z,86.85
2019-01-05T06:41:23.199Z,86.40
2019-01-05T06:45:29.552Z,88.21
2019-01-05T06:49:14.098Z,88.19
2019-01-05T06:53:10.380Z,87.12
2019-01-05T06:57:05.699Z,87.72
2019-01-05T07:01:17.265Z,88.28
2019-01-05T07:05:16.995Z,88.35
2019-01-05T07:09:06.717Z,88.66
2019-01-05T07:12:51.743Z,89.13
2019-01-05T07:16:51.686Z,88.79
2019-01-05T07:20:58.475Z,88.85
2019-01-05T07:24:43.967Z,87.82
2019-01-05T07:28:26.907Z,87.48
2019-01-05T07:32:30.098Z,87.82
2019-01-05T07:36:30.419Z,87.84
2019-01-05T07:40:37.099Z,87.39
2019-01-05T07:44:32.628Z,87.07
2019-01-05T07:48:19.544Z,86.50
2019-01-05T07:52:24.056Z,86.70
2019-01-05T07:56:07.438Z,85.80
2019-01-05T07:59:33.024Z,86.18
2019-01-05T08:03:32.972Z,86.01
2019-01-05T08:07:15.229Z,87.02
2019-01-05T08:11:41.738Z,86.68
2019-01-05T08:15:39.967Z,86.31
2019-01-05T08:20:11.155Z,85.14
2019-01-05T08:24:09.715Z,84.92
2019-01-05T08:28:14.647Z,84.61
2019-01-05T08:32:02.529Z,84.17
2019-01-05T08:36:08.070Z,85.16
2019-01-05T08:39:55.937Z,85.50
2019-01-05T08:44:08.568Z,85.86
2019-01-05T08:48:05.029Z,86.33
2019-01-05T08:51:56.821Z,85.33
2019-01-05T08:56:00.613Z,85.96
2019-01-05T09:00:01.164Z,86.14
2019-01-05T09:03:47.100Z,85.63
2019-01-05T09:07:57.660Z,85.69
2019-01-05T09:11:38.297Z,86.11
2019-01-05T09:15:10.966Z,86.19
2019-01-05T09:18:47.939Z,85.50
2019-01-05T09:22:36.062Z,85.51
2019-01-05T09:26:30.310Z,85.54
2019-01-05T09:30:21.834Z,86.27
2019-01-05T09:34:14.797Z,86.55
2019-01-05T09:38:12.300Z,85.64
2019-01-05T09:42:05.676Z,84.83
2019-01-05T09:46:03.360Z,85.41
2019-01-05T09:49:48.631Z,84.06
2019-01-05T09:54:07.843Z,84.63
2019-01-05T09:58:08.414Z,83.73
2019-01-05T10:02:02.040Z,83.62
2019-01-05T10:05:43.814Z,82.06
2019-01-05T10:10:06.449Z,82.08
2019-01-05T10:13:45.835Z,83.34
2019-01-05T10:17:33.489Z,83.20
2019-01-05T10:21:32.421Z,82.76
2019-01-05T10:25:37.995Z,82.25
2019-01-05T10:29:41.133Z,82.81
2019-01-05T10:33:58.419Z,83.37
2019-01-05T10:37:51.314Z,83.61
2019-01-05T10:41:58.364Z,84.01
2019-01-05T10:45:41.147Z,83.11
2019-01-05T10:49:40.036Z,83.61
2019-01-05T10:53:41.652Z,84.45
2019-01-05T10:57:35.229Z,83.15
2019-01-05T11:01:23.499Z,83.03
2019-01-05T11:05:12.998Z,82.56
2019-01-05T11:09:05.279Z,83.11
2019-01-05T11:13:06.248Z,82.97
2019-01-05T11:17:07.565Z,82.72
2019-01-05T11:21:18.506Z,81.65
2019-01-05T11:25:19.366Z,81.63
2019-01-05T11:28:56.224Z,80.54
2019-01-05T11:32:45.552Z,78.93
2019-01-05T11:36:49.993Z,77.93
2019-01-05T11:40:59.734Z,76.32
2019-01-05T11:44:59.082Z,76.07
2019-01-05T11:48:38.612Z,76.17
2019-01-05T11:52:26.900Z,74.23
2019-01-05T11:56:33.906Z,75.89
2019-01-05T12:00:04.639Z,71.91
2019-01-05T12:04:11.443Z,73.06
2019-01-05T12:07:52.721Z,72.24
2019-01-05T12:11:43.539Z,69.76
2019-01-05T12:15:42.472Z,69.86
2019-01-05T12:19:37.266Z,70.37
2019-01-05T12:23:28.511Z,70.96
2019-01-05T12:27:28.235Z,71.29
2019-01-05T12:31:03.766Z,74.36
2019-01-05T12:34:42.551Z,74.77
2019-01-05T12:38:45.776Z,73.00
2019-01-05T12:42:54.160Z,69.77
2019-01-05T12:46:47.411Z,70.62
2019-01-05T12:50:56.695Z,70.58
2019-01-05T12:54:39.267Z,68.40
2019-01-05T12:58:25.117Z,69.94
2019-01-05T13:02:47.799Z,67.87
2019-01-05T13:06:49.019Z,67.15
2019-01-05T13:10:55.562Z,66.20
2019-01-05T13:14:35.499Z,69.14
2019-01-05T13:18:53.493Z,71.80
2019-01-05T13:23:00.035Z,72.08
2019-01-05T13:27:04.150Z,72.82
2019-01-05T13:31:09.750Z,73.29
2019-01-05T13:35:01.117Z,73.40
2019-01-05T13:39:37.171Z,73.72
2019-01-05T13:43:14.111Z,73.20
2019-01-05T13:47:33.508Z,72.55
2019-01-05T13:50:44.288Z,73.19
2019-01-05T13:53:58.991Z,73.80
2019-01-05T13:57:06.983Z,73.75
2019-01-05T14:00:12.217Z,74.59
2019-01-05T14:03:05.567Z,73.99
2019-01-05T14:06:02.068Z,73.88
2019-01-05T14:09:06.671Z,74.13
2019-01-05T14:12:00.166Z,74.70
2019-01-05T14:14:49.411Z,74.83
2019-01-05T14:17:40.369Z,73.91
2019-01-05T14:20:40.169Z,73.47
2019-01-05T14:23:29.564Z,73.53
2019-01-05T14:26:20.264Z,73.52
2019-01-05T14:29:14.659Z,73.00
2019-01-05T14:32:20.121Z,73.67
2019-01-05T14:35:22.820Z,75.45
2019-01-05T14:38:13.224Z,74.63
2019-01-05T14:41:09.519Z,73.78
2019-01-05T14:44:03.041Z,73.49
2019-01-05T14:46:53.542Z,73.82
2019-01-05T14:49:46.693Z,74.67
2019-01-05T14:52:35.854Z,74.52
2019-01-05T14:55:24.806Z,74.84
2019-01-05T14:58:14.108Z,74.82
2019-01-05T15:01:12.849Z,74.47
2019-01-05T15:04:12.585Z,74.43
2019-01-05T15:07:05.793Z,75.42
2019-01-05T15:10:05.202Z,73.80
2019-01-05T15:12:54.517Z,74.06
2019-01-05T15:15:43.799Z,74.93
2019-01-05T15:18:33.135Z,76.76
2019-01-05T15:21:26.084Z,76.59
2019-01-05T15:24:15.393Z,76.57
2019-01-05T15:27:05.890Z,77.20
2019-01-05T15:29:55.263Z,76.53
2019-01-05T15:32:51.895Z,77.14
2019-01-05T15:35:40.986Z,76.85
2019-01-05T15:38:43.379Z,76.76
2019-01-05T15:41:32.700Z,77.15
2019-01-05T15:44:23.158Z,77.37
2019-01-05T15:47:16.434Z,77.98
2019-01-05T15:50:19.348Z,78.24
2019-01-05T15:53:12.694Z,78.33
2019-01-05T15:56:03.124Z,78.50
2019-01-05T15:58:59.470Z,78.88
2019-01-05T16:01:57.040Z,78.82
2019-01-05T16:04:53.665Z,79.60
2019-01-05T16:07:56.148Z,79.15
2019-01-05T16:10:45.315Z,79.30
2019-01-05T16:13:34.470Z,78.95
2019-01-05T16:16:40.231Z,78.54
2019-01-05T16:19:30.401Z,78.70
2019-01-05T16:22:22.564Z,80.77
2019-01-05T16:25:26.741Z,81.90
2019-01-05T16:28:23.166Z,81.88
2019-01-05T16:31:17.574Z,81.48
2019-01-05T16:34:22.646Z,80.55
2019-01-05T16:37:14.096Z,80.34
2019-01-05T16:40:16.634Z,80.60
2019-01-05T16:43:11.447Z,81.12
2019-01-05T16:46:10.849Z,80.51
2019-01-05T16:49:01.545Z,81.43
2019-01-05T16:52:16.436Z,81.25
2019-01-05T16:55:10.140Z,81.52
2019-01-05T16:58:09.411Z,82.25
2019-01-05T17:01:09.194Z,82.16
2019-01-05T17:04:10.776Z,82.16
2019-01-05T17:07:01.218Z,81.73
2019-01-05T17:09:49.724Z,81.90
2019-01-05T17:12:50.388Z,81.14
2019-01-05T17:16:25.502Z,81.46
2019-01-05T17:19:19.358Z,81.22
2019-01-05T17:22:05.351Z,80.94
2019-01-05T17:25:01.997Z,80.64
2019-01-05T17:27:51.401Z,80.48
2019-01-05T17:30:41.809Z,79.59
2019-01-05T17:33:33.294Z,80.21
2019-01-05T17:36:23.974Z,79.41
2019-01-05T17:39:14.966Z,80.08
2019-01-05T17:42:17.840Z,79.79
2019-01-05T17:45:08.232Z,79.33
2019-01-05T17:47:57.359Z,79.67
2019-01-05T17:51:03.375Z,80.52
2019-01-05T17:54:02.784Z,79.44
2019-01-05T17:57:08.549Z,79.76
2019-01-05T18:00:01.769Z,80.13
2019-01-05T18:03:04.492Z,79.91
2019-01-05T18:05:53.213Z,80.12
2019-01-05T18:08:52.954Z,80.09
2019-01-05T18:11:42.275Z,80.44
2019-01-05T18:14:31.345Z,79.36
2019-01-05T18:17:15.025Z,79.56
2019-01-05T18:20:04.352Z,79.97
2019-01-05T18:22:54.807Z,79.46
2019-01-05T18:25:57.300Z,79.47
2019-01-05T18:28:46.607Z,79.71
2019-01-05T18:31:46.988Z,79.88
2019-01-05T18:34:33.679Z,80.12
2019-01-05T18:37:23.173Z,79.35
2019-01-05T18:40:22.733Z,79.59
2019-01-05T18:43:24.220Z,79.79
2019-01-05T18:46:30.015Z,79.89
2019-01-05T18:49:19.179Z,79.92
2019-01-05T18:52:08.265Z,80.68
2019-01-05T18:54:57.303Z,79.63
2019-01-05T18:57:46.673Z,80.20
2019-01-05T19:00:36.811Z,80.16
2019-01-05T19:03:33.491Z,80.27
2019-01-05T19:06:37.264Z,80.13
2019-01-05T19:09:28.738Z,79.86
2019-01-05T19:12:19.470Z,79.96
2019-01-05T19:15:16.038Z,80.31
2019-01-05T19:18:13.390Z,80.74
2019-01-05T19:21:15.971Z,80.71
2019-01-05T19:24:16.089Z,80.96
2019-01-05T19:27:05.157Z,80.41
2019-01-05T19:29:55.751Z,80.52
2019-01-05T19:32:44.854Z,80.52
2019-01-05T19:35:53.992Z,79.46
2019-01-05T19:38:48.335Z,79.90
2019-01-05T19:41:34.301Z,79.28
2019-01-05T19:44:23.502Z,79.04
2019-01-05T19:47:25.980Z,78.71
2019-01-05T19:50:31.541Z,78.16
2019-01-05T19:53:37.221Z,78.33
2019-01-05T19:57:02.527Z,77.88
2019-01-05T20:00:29.948Z,77.67
2019-01-05T20:04:39.144Z,77.33
2019-01-05T20:08:15.045Z,77.06
2019-01-05T20:11:05.507Z,76.89
2019-01-05T20:13:54.613Z,76.96
2019-01-05T20:16:48.101Z,76.81
2019-01-05T20:19:37.395Z,76.11
2019-01-05T20:22:26.611Z,76.32
2019-01-05T20:25:23.094Z,76.73
2019-01-05T20:28:12.170Z,76.73
2019-01-05T20:31:11.749Z,76.33
2019-01-05T20:34:20.573Z,77.13
2019-01-05T20:37:13.964Z,76.84
2019-01-05T20:39:53.203Z,76.31
2019-01-05T20:42:46.669Z,76.17
2019-01-05T20:45:39.875Z,76.17
2019-01-05T20:48:39.377Z,76.46
2019-01-05T20:51:28.524Z,75.62
2019-01-05T20:54:35.265Z,76.10
2019-01-05T20:57:25.682Z,75.45
2019-01-05T21:00:14.785Z,76.16
2019-01-05T21:02:59.285Z,75.05
2019-01-05T21:05:49.779Z,75.71
2019-01-05T21:08:44.689Z,75.48
2019-01-05T21:11:33.960Z,75.22
2019-01-05T21:14:23.210Z,76.27
2019-01-05T21:17:12.244Z,75.97
2019-01-05T21:20:02.678Z,76.34
2019-01-05T21:22:46.439Z,77.11
2019-01-05T21:25:42.940Z,76.57
2019-01-05T21:28:36.427Z,77.39
2019-01-05T21:31:30.040Z,77.85
2019-01-05T21:34:17.854Z,78.26
2019-01-05T21:37:07.510Z,78.23
2019-01-05T21:39:58.012Z,77.95
2019-01-05T21:43:03.322Z,78.66
2019-01-05T21:46:12.046Z,78.26
2019-01-05T21:49:14.650Z,79.36
2019-01-05T21:52:11.189Z,79.11
2019-01-05T21:55:00.488Z,78.92
2019-01-05T21:58:04.437Z,78.58
2019-01-05T22:00:52.699Z,79.12
2019-01-05T22:03:52.304Z,79.97
2019-01-05T22:06:44.058Z,79.44
2019-01-05T22:09:32.511Z,79.36
2019-01-05T22:12:35.424Z,79.34
2019-01-05T22:15:26.923Z,79.71
2019-01-05T22:18:35.505Z,80.31
2019-01-05T22:21:25.975Z,80.21
2019-01-05T22:24:19.570Z,80.51
2019-01-05T22:27:25.345Z,80.58
2019-01-05T22:30:14.665Z,79.97
2019-01-05T22:33:30.881Z,80.07
2019-01-05T22:36:36.665Z,80.26
2019-01-05T22:39:46.203Z,80.57
2019-01-05T22:42:38.399Z,79.74
2019-01-05T22:45:29.197Z,79.76
2019-01-05T22:48:15.647Z,79.79
2019-01-05T22:51:06.182Z,79.76
2019-01-05T22:53:55.505Z,79.07
2019-01-05T22:56:53.652Z,79.49
2019-01-05T22:59:53.354Z,79.79
2019-01-05T23:02:50.111Z,79.41
2019-01-05T23:05:42.522Z,79.93
2019-01-05T23:08:31.737Z,79.53
2019-01-05T23:11:32.623Z,79.49
2019-01-05T23:14:29.002Z,79.14
2019-01-05T23:17:22.610Z,79.08
2019-01-05T23:20:12.129Z,80.61
2019-01-05T23:23:02.578Z,80.80
2019-01-05T23:26:05.213Z,80.80
2019-01-05T23:29:10.841Z,80.80
2019-01-05T23:32:00.815Z,81.01
2019-01-05T23:34:43.772Z,81.28
2019-01-05T23:37:37.168Z,81.23
2019-01-05T23:40:26.481Z,81.22
2019-01-05T23:43:12.322Z,80.57
2019-01-05T23:46:08.885Z,80.05
2019-01-05T23:49:08.613Z,80.06
2019-01-05T23:51:58.040Z,80.37
2019-01-05T23:55:00.732Z,80.75
2019-01-05T23:57:51.222Z,80.49
